sensor_id;sensor_type;location;lat;lon;timestamp;temperature;humidity
21255;DHT22;10785;50.674;17.954;2023-11-18T00:00:47;3.70;99.90
21255;DHT22;10785;50.674;17.954;2023-11-18T00:03:40;3.70;99.90
21255;DHT22;10785;50.674;17.954;2023-11-18T00:06:25;3.70;99.90
21255;DHT22;10785;50.674;17.954;2023-11-18T00:09:11;3.80;99.90
21255;DHT22;10785;50.674;17.954;2023-11-18T00:12:06;3.80;99.90
21255;DHT22;10785;50.674;17.954;2023-11-18T00:14:50;3.80;99.90
21255;DHT22;10785;50.674;17.954;2023-11-18T00:17:38;3.90;99.90
21255;DHT22;10785;50.674;17.954;2023-11-18T00:20:23;3.90;99.90
21255;DHT22;10785;50.674;17.954;2023-11-18T00:23:07;4.00;99.90
21255;DHT22;10785;50.674;17.954;2023-11-18T00:25:54;4.00;99.90
21255;DHT22;10785;50.674;17.954;2023-11-18T00:28:34;4.00;99.90
21255;DHT22;10785;50.674;17.954;2023-11-18T00:31:23;4.10;99.90
21255;DHT22;10785;50.674;17.954;2023-11-18T00:34:15;4.10;99.90
21255;DHT22;10785;50.674;17.954;2023-11-18T00:37:07;4.10;99.90
21255;DHT22;10785;50.674;17.954;2023-11-18T00:39:59;4.10;99.90
21255;DHT22;10785;50.674;17.954;2023-11-18T00:42:41;4.10;99.90
21255;DHT22;10785;50.674;17.954;2023-11-18T00:45:33;4.10;99.90
21255;DHT22;10785;50.674;17.954;2023-11-18T00:48:21;4.10;99.90
21255;DHT22;10785;50.674;17.954;2023-11-18T00:51:06;4.10;99.90
21255;DHT22;10785;50.674;17.954;2023-11-18T00:53:48;4.10;99.90
21255;DHT22;10785;50.674;17.954;2023-11-18T00:56:38;4.10;99.90
21255;DHT22;10785;50.674;17.954;2023-11-18T00:59:23;4.10;99.90
21255;DHT22;10785;50.674;17.954;2023-11-18T01:02:12;4.20;99.90
21255;DHT22;10785;50.674;17.954;2023-11-18T01:05:01;4.20;99.90
21255;DHT22;10785;50.674;17.954;2023-11-18T01:07:42;4.20;99.90
21255;DHT22;10785;50.674;17.954;2023-11-18T01:10:25;4.20;99.90
21255;DHT22;10785;50.674;17.954;2023-11-18T01:13:02;4.10;99.90
21255;DHT22;10785;50.674;17.954;2023-11-18T01:15:44;4.10;99.90
21255;DHT22;10785;50.674;17.954;2023-11-18T01:18:43;4.10;99.90
21255;DHT22;10785;50.674;17.954;2023-11-18T01:21:30;4.00;99.90
21255;DHT22;10785;50.674;17.954;2023-11-18T01:24:13;4.00;99.90
21255;DHT22;10785;50.674;17.954;2023-11-18T01:27:03;4.00;99.90
21255;DHT22;10785;50.674;17.954;2023-11-18T01:29:50;4.00;99.90
21255;DHT22;10785;50.674;17.954;2023-11-18T01:32:37;3.90;99.90
21255;DHT22;10785;50.674;17.954;2023-11-18T01:35:21;3.90;99.90
21255;DHT22;10785;50.674;17.954;2023-11-18T01:38:09;3.90;99.90
21255;DHT22;10785;50.674;17.954;2023-11-18T01:40:52;3.90;99.90
21255;DHT22;10785;50.674;17.954;2023-11-18T01:43:40;3.90;99.90
21255;DHT22;10785;50.674;17.954;2023-11-18T01:46:20;3.90;99.90
21255;DHT22;10785;50.674;17.954;2023-11-18T01:49:08;3.80;99.90
21255;DHT22;10785;50.674;17.954;2023-11-18T01:51:54;3.80;99.90
21255;DHT22;10785;50.674;17.954;2023-11-18T01:54:44;3.80;99.90
21255;DHT22;10785;50.674;17.954;2023-11-18T01:57:27;3.80;99.90
21255;DHT22;10785;50.674;17.954;2023-11-18T02:00:12;3.80;99.90
21255;DHT22;10785;50.674;17.954;2023-11-18T02:02:46;3.80;99.90
21255;DHT22;10785;50.674;17.954;2023-11-18T02:05:32;3.80;99.90
21255;DHT22;10785;50.674;17.954;2023-11-18T02:08:11;3.80;99.90
21255;DHT22;10785;50.674;17.954;2023-11-18T02:10:57;3.70;99.90
21255;DHT22;10785;50.674;17.954;2023-11-18T02:13:48;3.70;99.90
21255;DHT22;10785;50.674;17.954;2023-11-18T02:16:31;3.70;99.90
21255;DHT22;10785;50.674;17.954;2023-11-18T02:19:24;3.70;99.90
21255;DHT22;10785;50.674;17.954;2023-11-18T02:22:09;3.70;99.90
21255;DHT22;10785;50.674;17.954;2023-11-18T02:24:50;3.70;99.90
21255;DHT22;10785;50.674;17.954;2023-11-18T02:27:35;3.70;99.90
21255;DHT22;10785;50.674;17.954;2023-11-18T02:30:22;3.70;99.90
21255;DHT22;10785;50.674;17.954;2023-11-18T02:33:13;3.70;99.90
21255;DHT22;10785;50.674;17.954;2023-11-18T02:36:04;3.70;99.90
21255;DHT22;10785;50.674;17.954;2023-11-18T02:38:52;3.70;99.90
21255;DHT22;10785;50.674;17.954;2023-11-18T02:41:39;3.70;99.90
21255;DHT22;10785;50.674;17.954;2023-11-18T02:44:28;3.70;99.90
21255;DHT22;10785;50.674;17.954;2023-11-18T02:47:09;3.70;99.90
21255;DHT22;10785;50.674;17.954;2023-11-18T02:49:57;3.60;99.90
21255;DHT22;10785;50.674;17.954;2023-11-18T02:52:39;3.60;99.90
21255;DHT22;10785;50.674;17.954;2023-11-18T02:55:26;3.60;99.90
21255;DHT22;10785;50.674;17.954;2023-11-18T02:58:06;3.60;99.90
21255;DHT22;10785;50.674;17.954;2023-11-18T03:00:58;3.60;99.90
21255;DHT22;10785;50.674;17.954;2023-11-18T03:03:51;3.60;99.90
21255;DHT22;10785;50.674;17.954;2023-11-18T03:06:44;3.60;99.90
21255;DHT22;10785;50.674;17.954;2023-11-18T03:09:30;3.60;99.90
21255;DHT22;10785;50.674;17.954;2023-11-18T03:12:21;3.60;99.90
21255;DHT22;10785;50.674;17.954;2023-11-18T03:15:07;3.60;99.90
21255;DHT22;10785;50.674;17.954;2023-11-18T03:17:44;3.60;99.90
21255;DHT22;10785;50.674;17.954;2023-11-18T03:20:43;3.60;99.90
21255;DHT22;10785;50.674;17.954;2023-11-18T03:23:20;3.70;99.90
21255;DHT22;10785;50.674;17.954;2023-11-18T03:26:06;3.70;99.90
21255;DHT22;10785;50.674;17.954;2023-11-18T03:28:40;3.70;99.90
21255;DHT22;10785;50.674;17.954;2023-11-18T03:31:14;3.70;99.90
21255;DHT22;10785;50.674;17.954;2023-11-18T03:33:48;3.70;99.90
21255;DHT22;10785;50.674;17.954;2023-11-18T03:36:18;3.60;99.90
21255;DHT22;10785;50.674;17.954;2023-11-18T03:39:04;3.60;99.90
21255;DHT22;10785;50.674;17.954;2023-11-18T03:41:48;3.60;99.90
21255;DHT22;10785;50.674;17.954;2023-11-18T03:44:31;3.60;99.90
21255;DHT22;10785;50.674;17.954;2023-11-18T03:47:14;3.60;99.90
21255;DHT22;10785;50.674;17.954;2023-11-18T03:50:03;3.60;99.90
21255;DHT22;10785;50.674;17.954;2023-11-18T03:52:45;3.70;99.90
21255;DHT22;10785;50.674;17.954;2023-11-18T03:55:26;3.70;99.90
21255;DHT22;10785;50.674;17.954;2023-11-18T03:58:12;3.70;99.90
21255;DHT22;10785;50.674;17.954;2023-11-18T04:00:55;3.70;99.90
21255;DHT22;10785;50.674;17.954;2023-11-18T04:03:39;3.70;99.90
21255;DHT22;10785;50.674;17.954;2023-11-18T04:06:29;3.70;99.90
21255;DHT22;10785;50.674;17.954;2023-11-18T04:09:18;3.70;99.90
21255;DHT22;10785;50.674;17.954;2023-11-18T04:12:03;3.70;99.90
21255;DHT22;10785;50.674;17.954;2023-11-18T04:14:46;3.70;99.90
21255;DHT22;10785;50.674;17.954;2023-11-18T04:17:36;3.80;99.90
21255;DHT22;10785;50.674;17.954;2023-11-18T04:20:20;3.80;99.90
21255;DHT22;10785;50.674;17.954;2023-11-18T04:23:16;3.80;99.90
21255;DHT22;10785;50.674;17.954;2023-11-18T04:26:07;3.80;99.90
21255;DHT22;10785;50.674;17.954;2023-11-18T04:28:50;3.80;99.90
21255;DHT22;10785;50.674;17.954;2023-11-18T04:31:24;3.80;99.90
21255;DHT22;10785;50.674;17.954;2023-11-18T04:34:09;3.80;99.90
21255;DHT22;10785;50.674;17.954;2023-11-18T04:36:55;3.80;99.90
21255;DHT22;10785;50.674;17.954;2023-11-18T04:39:47;3.70;99.90
21255;DHT22;10785;50.674;17.954;2023-11-18T04:42:28;3.60;99.90
21255;DHT22;10785;50.674;17.954;2023-11-18T04:48:01;3.60;99.90
21255;DHT22;10785;50.674;17.954;2023-11-18T04:50:40;3.60;99.90
21255;DHT22;10785;50.674;17.954;2023-11-18T04:53:25;3.60;99.90
21255;DHT22;10785;50.674;17.954;2023-11-18T04:56:18;3.60;99.90
21255;DHT22;10785;50.674;17.954;2023-11-18T04:58:57;3.60;99.90
21255;DHT22;10785;50.674;17.954;2023-11-18T05:01:38;3.60;99.90
21255;DHT22;10785;50.674;17.954;2023-11-18T05:04:11;3.50;99.90
21255;DHT22;10785;50.674;17.954;2023-11-18T05:06:40;3.50;99.90
21255;DHT22;10785;50.674;17.954;2023-11-18T05:09:13;3.50;99.90
21255;DHT22;10785;50.674;17.954;2023-11-18T05:11:52;3.40;99.90
21255;DHT22;10785;50.674;17.954;2023-11-18T05:17:38;3.40;99.90
21255;DHT22;10785;50.674;17.954;2023-11-18T05:20:23;3.40;99.90
21255;DHT22;10785;50.674;17.954;2023-11-18T05:23:09;3.50;99.90
21255;DHT22;10785;50.674;17.954;2023-11-18T05:25:46;3.50;99.90
21255;DHT22;10785;50.674;17.954;2023-11-18T05:28:26;3.50;99.90
21255;DHT22;10785;50.674;17.954;2023-11-18T05:31:11;3.60;99.90
21255;DHT22;10785;50.674;17.954;2023-11-18T05:34:01;3.60;99.90
21255;DHT22;10785;50.674;17.954;2023-11-18T05:36:41;3.60;99.90
21255;DHT22;10785;50.674;17.954;2023-11-18T05:39:30;3.60;99.90
21255;DHT22;10785;50.674;17.954;2023-11-18T05:42:17;3.60;99.90
21255;DHT22;10785;50.674;17.954;2023-11-18T05:45:20;3.60;99.90
21255;DHT22;10785;50.674;17.954;2023-11-18T05:48:20;3.60;99.90
21255;DHT22;10785;50.674;17.954;2023-11-18T05:51:05;3.60;99.90
21255;DHT22;10785;50.674;17.954;2023-11-18T05:53:38;3.50;99.90
21255;DHT22;10785;50.674;17.954;2023-11-18T05:56:08;3.50;99.90
21255;DHT22;10785;50.674;17.954;2023-11-18T05:58:40;3.50;99.90
21255;DHT22;10785;50.674;17.954;2023-11-18T06:01:21;3.50;99.90
21255;DHT22;10785;50.674;17.954;2023-11-18T06:03:57;3.50;99.90
21255;DHT22;10785;50.674;17.954;2023-11-18T06:06:30;3.50;99.90
21255;DHT22;10785;50.674;17.954;2023-11-18T06:09:05;3.60;99.90
21255;DHT22;10785;50.674;17.954;2023-11-18T06:11:40;3.60;99.90
21255;DHT22;10785;50.674;17.954;2023-11-18T06:14:20;3.60;99.90
21255;DHT22;10785;50.674;17.954;2023-11-18T06:17:01;3.60;99.90
21255;DHT22;10785;50.674;17.954;2023-11-18T06:19:39;3.60;99.90
21255;DHT22;10785;50.674;17.954;2023-11-18T06:22:11;3.60;99.90
21255;DHT22;10785;50.674;17.954;2023-11-18T06:24:45;3.60;99.90
21255;DHT22;10785;50.674;17.954;2023-11-18T06:27:17;3.60;99.90
21255;DHT22;10785;50.674;17.954;2023-11-18T06:29:50;3.60;99.90
21255;DHT22;10785;50.674;17.954;2023-11-18T06:32:25;3.60;99.90
21255;DHT22;10785;50.674;17.954;2023-11-18T06:34:55;3.60;99.90
21255;DHT22;10785;50.674;17.954;2023-11-18T06:37:32;3.60;99.90
21255;DHT22;10785;50.674;17.954;2023-11-18T06:40:12;3.70;99.90
21255;DHT22;10785;50.674;17.954;2023-11-18T06:42:53;3.60;99.90
21255;DHT22;10785;50.674;17.954;2023-11-18T06:45:55;3.60;99.90
21255;DHT22;10785;50.674;17.954;2023-11-18T06:48:41;3.70;99.90
21255;DHT22;10785;50.674;17.954;2023-11-18T06:51:16;3.60;99.90
21255;DHT22;10785;50.674;17.954;2023-11-18T06:54:04;3.60;99.90
21255;DHT22;10785;50.674;17.954;2023-11-18T06:56:48;3.60;99.90
21255;DHT22;10785;50.674;17.954;2023-11-18T06:59:31;3.60;99.90
21255;DHT22;10785;50.674;17.954;2023-11-18T07:02:15;3.60;99.90
21255;DHT22;10785;50.674;17.954;2023-11-18T07:05:05;3.60;99.90
21255;DHT22;10785;50.674;17.954;2023-11-18T07:07:48;3.60;99.90
21255;DHT22;10785;50.674;17.954;2023-11-18T07:10:34;3.60;99.90
21255;DHT22;10785;50.674;17.954;2023-11-18T07:13:12;3.50;99.90
21255;DHT22;10785;50.674;17.954;2023-11-18T07:15:45;3.50;99.90
21255;DHT22;10785;50.674;17.954;2023-11-18T07:18:17;3.50;99.90
21255;DHT22;10785;50.674;17.954;2023-11-18T07:20:53;3.50;99.90
21255;DHT22;10785;50.674;17.954;2023-11-18T07:23:23;3.50;99.90
21255;DHT22;10785;50.674;17.954;2023-11-18T07:25:56;3.50;99.90
21255;DHT22;10785;50.674;17.954;2023-11-18T07:28:32;3.40;99.90
21255;DHT22;10785;50.674;17.954;2023-11-18T07:31:13;3.50;99.90
21255;DHT22;10785;50.674;17.954;2023-11-18T07:33:48;3.50;99.90
21255;DHT22;10785;50.674;17.954;2023-11-18T07:36:25;3.50;99.90
21255;DHT22;10785;50.674;17.954;2023-11-18T07:39:02;3.50;99.90
21255;DHT22;10785;50.674;17.954;2023-11-18T07:41:47;3.50;99.90
21255;DHT22;10785;50.674;17.954;2023-11-18T07:44:34;3.50;99.90
21255;DHT22;10785;50.674;17.954;2023-11-18T07:47:19;3.60;99.90
21255;DHT22;10785;50.674;17.954;2023-11-18T07:50:05;3.50;99.90
21255;DHT22;10785;50.674;17.954;2023-11-18T07:52:51;3.50;99.90
21255;DHT22;10785;50.674;17.954;2023-11-18T07:55:28;3.50;99.90
21255;DHT22;10785;50.674;17.954;2023-11-18T07:58:18;3.50;99.90
21255;DHT22;10785;50.674;17.954;2023-11-18T08:00:58;3.60;99.90
21255;DHT22;10785;50.674;17.954;2023-11-18T08:03:30;3.60;99.90
21255;DHT22;10785;50.674;17.954;2023-11-18T08:06:08;3.60;99.90
21255;DHT22;10785;50.674;17.954;2023-11-18T08:08:46;3.60;99.90
21255;DHT22;10785;50.674;17.954;2023-11-18T08:11:26;3.60;99.90
21255;DHT22;10785;50.674;17.954;2023-11-18T08:13:57;3.60;99.90
21255;DHT22;10785;50.674;17.954;2023-11-18T08:16:31;3.60;99.90
21255;DHT22;10785;50.674;17.954;2023-11-18T08:19:10;3.60;99.90
21255;DHT22;10785;50.674;17.954;2023-11-18T08:22:00;3.50;99.90
21255;DHT22;10785;50.674;17.954;2023-11-18T08:24:40;3.60;99.90
21255;DHT22;10785;50.674;17.954;2023-11-18T08:27:15;3.60;99.90
21255;DHT22;10785;50.674;17.954;2023-11-18T08:30:06;3.60;99.90
21255;DHT22;10785;50.674;17.954;2023-11-18T08:32:48;3.60;99.90
21255;DHT22;10785;50.674;17.954;2023-11-18T08:35:21;3.60;99.90
21255;DHT22;10785;50.674;17.954;2023-11-18T08:37:57;3.60;99.90
21255;DHT22;10785;50.674;17.954;2023-11-18T08:40:48;3.60;99.90
21255;DHT22;10785;50.674;17.954;2023-11-18T08:43:29;3.70;99.90
21255;DHT22;10785;50.674;17.954;2023-11-18T08:46:07;3.70;99.90
21255;DHT22;10785;50.674;17.954;2023-11-18T08:48:41;3.70;99.90
21255;DHT22;10785;50.674;17.954;2023-11-18T08:51:13;3.70;99.90
21255;DHT22;10785;50.674;17.954;2023-11-18T08:53:45;3.70;99.90
21255;DHT22;10785;50.674;17.954;2023-11-18T08:56:21;3.70;99.90
21255;DHT22;10785;50.674;17.954;2023-11-18T08:59:07;3.70;99.90
21255;DHT22;10785;50.674;17.954;2023-11-18T09:01:48;3.60;99.90
21255;DHT22;10785;50.674;17.954;2023-11-18T09:04:20;3.30;99.90
21255;DHT22;10785;50.674;17.954;2023-11-18T09:07:02;3.10;99.90
21255;DHT22;10785;50.674;17.954;2023-11-18T09:09:45;3.10;99.90
21255;DHT22;10785;50.674;17.954;2023-11-18T09:15:21;3.10;99.90
21255;DHT22;10785;50.674;17.954;2023-11-18T09:18:04;3.10;99.90
21255;DHT22;10785;50.674;17.954;2023-11-18T09:20:52;3.00;99.90
21255;DHT22;10785;50.674;17.954;2023-11-18T09:23:39;3.00;99.90
21255;DHT22;10785;50.674;17.954;2023-11-18T09:26:23;2.90;99.90
21255;DHT22;10785;50.674;17.954;2023-11-18T09:28:55;2.90;99.90
21255;DHT22;10785;50.674;17.954;2023-11-18T09:31:25;2.90;99.90
21255;DHT22;10785;50.674;17.954;2023-11-18T09:33:55;2.90;99.90
21255;DHT22;10785;50.674;17.954;2023-11-18T09:36:25;2.80;99.90
21255;DHT22;10785;50.674;17.954;2023-11-18T09:38:57;2.80;99.90
21255;DHT22;10785;50.674;17.954;2023-11-18T09:41:27;2.80;99.90
21255;DHT22;10785;50.674;17.954;2023-11-18T09:43:58;2.80;99.90
21255;DHT22;10785;50.674;17.954;2023-11-18T09:46:30;2.90;99.90
21255;DHT22;10785;50.674;17.954;2023-11-18T09:49:10;2.80;99.90
21255;DHT22;10785;50.674;17.954;2023-11-18T09:51:45;2.80;99.90
21255;DHT22;10785;50.674;17.954;2023-11-18T09:54:19;2.80;99.90
21255;DHT22;10785;50.674;17.954;2023-11-18T09:57:03;2.70;99.90
21255;DHT22;10785;50.674;17.954;2023-11-18T09:59:43;2.70;99.90
21255;DHT22;10785;50.674;17.954;2023-11-18T10:02:16;2.60;99.90
21255;DHT22;10785;50.674;17.954;2023-11-18T10:04:47;2.60;99.90
21255;DHT22;10785;50.674;17.954;2023-11-18T10:07:23;2.60;99.90
21255;DHT22;10785;50.674;17.954;2023-11-18T10:09:54;2.60;99.90
21255;DHT22;10785;50.674;17.954;2023-11-18T10:12:26;2.60;99.90
21255;DHT22;10785;50.674;17.954;2023-11-18T10:14:59;2.50;99.90
21255;DHT22;10785;50.674;17.954;2023-11-18T10:17:32;2.40;99.90
21255;DHT22;10785;50.674;17.954;2023-11-18T10:20:01;2.50;99.90
21255;DHT22;10785;50.674;17.954;2023-11-18T10:22:41;2.50;99.90
21255;DHT22;10785;50.674;17.954;2023-11-18T10:25:24;2.50;99.90
21255;DHT22;10785;50.674;17.954;2023-11-18T10:27:53;2.60;99.90
21255;DHT22;10785;50.674;17.954;2023-11-18T10:30:28;2.60;99.90
21255;DHT22;10785;50.674;17.954;2023-11-18T10:33:00;2.60;99.90
21255;DHT22;10785;50.674;17.954;2023-11-18T10:35:35;2.60;99.90
21255;DHT22;10785;50.674;17.954;2023-11-18T10:38:05;2.70;99.90
21255;DHT22;10785;50.674;17.954;2023-11-18T10:40:34;2.70;99.90
21255;DHT22;10785;50.674;17.954;2023-11-18T10:43:05;2.70;99.90
21255;DHT22;10785;50.674;17.954;2023-11-18T10:45:39;2.80;99.90
21255;DHT22;10785;50.674;17.954;2023-11-18T10:48:12;2.80;99.90
21255;DHT22;10785;50.674;17.954;2023-11-18T10:50:47;2.80;99.90
21255;DHT22;10785;50.674;17.954;2023-11-18T10:53:19;2.80;99.90
21255;DHT22;10785;50.674;17.954;2023-11-18T10:55:49;2.80;99.90
21255;DHT22;10785;50.674;17.954;2023-11-18T10:58:19;2.80;99.90
21255;DHT22;10785;50.674;17.954;2023-11-18T11:00:51;2.90;99.90
21255;DHT22;10785;50.674;17.954;2023-11-18T11:03:23;2.90;99.90
21255;DHT22;10785;50.674;17.954;2023-11-18T11:05:53;3.00;99.90
21255;DHT22;10785;50.674;17.954;2023-11-18T11:08:24;3.10;99.90
21255;DHT22;10785;50.674;17.954;2023-11-18T11:11:08;3.10;99.90
21255;DHT22;10785;50.674;17.954;2023-11-18T11:13:45;3.10;99.90
21255;DHT22;10785;50.674;17.954;2023-11-18T11:16:19;3.20;99.90
21255;DHT22;10785;50.674;17.954;2023-11-18T11:18:54;3.30;99.90
21255;DHT22;10785;50.674;17.954;2023-11-18T11:21:26;3.30;99.90
21255;DHT22;10785;50.674;17.954;2023-11-18T11:24:04;3.30;99.90
21255;DHT22;10785;50.674;17.954;2023-11-18T11:26:45;3.40;99.90
21255;DHT22;10785;50.674;17.954;2023-11-18T11:29:26;3.40;99.90
21255;DHT22;10785;50.674;17.954;2023-11-18T11:32:11;3.40;99.90
21255;DHT22;10785;50.674;17.954;2023-11-18T11:34:47;3.50;99.90
21255;DHT22;10785;50.674;17.954;2023-11-18T11:37:20;3.40;99.90
21255;DHT22;10785;50.674;17.954;2023-11-18T11:39:51;3.30;99.90
21255;DHT22;10785;50.674;17.954;2023-11-18T11:42:22;3.30;99.90
21255;DHT22;10785;50.674;17.954;2023-11-18T11:44:51;3.20;99.90
21255;DHT22;10785;50.674;17.954;2023-11-18T11:47:25;3.30;99.90
21255;DHT22;10785;50.674;17.954;2023-11-18T11:50:01;3.50;99.90
21255;DHT22;10785;50.674;17.954;2023-11-18T11:52:44;3.50;99.90
21255;DHT22;10785;50.674;17.954;2023-11-18T11:55:22;3.40;99.90
21255;DHT22;10785;50.674;17.954;2023-11-18T11:57:55;3.40;99.90
21255;DHT22;10785;50.674;17.954;2023-11-18T12:00:27;3.50;99.90
21255;DHT22;10785;50.674;17.954;2023-11-18T12:03:12;3.40;99.90
21255;DHT22;10785;50.674;17.954;2023-11-18T12:05:48;3.40;99.90
21255;DHT22;10785;50.674;17.954;2023-11-18T12:08:19;3.40;99.90
21255;DHT22;10785;50.674;17.954;2023-11-18T12:10:53;3.40;99.90
21255;DHT22;10785;50.674;17.954;2023-11-18T12:13:23;3.40;99.90
21255;DHT22;10785;50.674;17.954;2023-11-18T12:15:54;3.40;99.90
21255;DHT22;10785;50.674;17.954;2023-11-18T12:18:27;3.30;99.90
21255;DHT22;10785;50.674;17.954;2023-11-18T12:20:59;3.40;99.90
21255;DHT22;10785;50.674;17.954;2023-11-18T12:23:31;3.30;99.90
21255;DHT22;10785;50.674;17.954;2023-11-18T12:26:38;3.30;99.90
21255;DHT22;10785;50.674;17.954;2023-11-18T12:29:32;3.30;99.90
21255;DHT22;10785;50.674;17.954;2023-11-18T12:32:58;3.30;99.90
21255;DHT22;10785;50.674;17.954;2023-11-18T12:35:34;3.40;99.90
21255;DHT22;10785;50.674;17.954;2023-11-18T12:38:26;3.40;99.90
21255;DHT22;10785;50.674;17.954;2023-11-18T12:41:02;3.40;99.90
21255;DHT22;10785;50.674;17.954;2023-11-18T12:43:47;3.40;99.90
21255;DHT22;10785;50.674;17.954;2023-11-18T12:46:47;3.40;99.90
21255;DHT22;10785;50.674;17.954;2023-11-18T12:49:18;3.40;99.90
21255;DHT22;10785;50.674;17.954;2023-11-18T12:51:54;3.40;99.90
21255;DHT22;10785;50.674;17.954;2023-11-18T12:54:25;3.40;99.90
21255;DHT22;10785;50.674;17.954;2023-11-18T12:56:55;3.40;99.90
21255;DHT22;10785;50.674;17.954;2023-11-18T12:59:25;3.50;99.90
21255;DHT22;10785;50.674;17.954;2023-11-18T13:01:55;3.40;99.90
21255;DHT22;10785;50.674;17.954;2023-11-18T13:04:25;3.40;99.90
21255;DHT22;10785;50.674;17.954;2023-11-18T13:06:57;3.40;99.90
21255;DHT22;10785;50.674;17.954;2023-11-18T13:09:27;3.40;99.90
21255;DHT22;10785;50.674;17.954;2023-11-18T13:12:00;3.40;99.90
21255;DHT22;10785;50.674;17.954;2023-11-18T13:14:33;3.40;99.90
21255;DHT22;10785;50.674;17.954;2023-11-18T13:17:20;3.50;99.90
21255;DHT22;10785;50.674;17.954;2023-11-18T13:19:50;3.50;99.90
21255;DHT22;10785;50.674;17.954;2023-11-18T13:22:24;3.50;99.90
21255;DHT22;10785;50.674;17.954;2023-11-18T13:25:12;3.50;99.90
21255;DHT22;10785;50.674;17.954;2023-11-18T13:27:42;3.50;99.90
21255;DHT22;10785;50.674;17.954;2023-11-18T13:30:13;3.50;99.90
21255;DHT22;10785;50.674;17.954;2023-11-18T13:32:46;3.50;99.90
21255;DHT22;10785;50.674;17.954;2023-11-18T13:35:17;3.50;99.90
21255;DHT22;10785;50.674;17.954;2023-11-18T13:37:55;3.50;99.90
21255;DHT22;10785;50.674;17.954;2023-11-18T13:40:26;3.50;99.90
21255;DHT22;10785;50.674;17.954;2023-11-18T13:43:03;3.40;99.90
21255;DHT22;10785;50.674;17.954;2023-11-18T13:45:36;3.40;99.90
21255;DHT22;10785;50.674;17.954;2023-11-18T13:50:56;3.50;99.90
21255;DHT22;10785;50.674;17.954;2023-11-18T13:53:27;3.40;99.90
21255;DHT22;10785;50.674;17.954;2023-11-18T13:55:59;3.40;99.90
21255;DHT22;10785;50.674;17.954;2023-11-18T13:58:35;3.50;99.90
21255;DHT22;10785;50.674;17.954;2023-11-18T14:01:07;3.50;99.90
21255;DHT22;10785;50.674;17.954;2023-11-18T14:03:38;3.50;99.90
21255;DHT22;10785;50.674;17.954;2023-11-18T14:06:08;3.50;99.90
21255;DHT22;10785;50.674;17.954;2023-11-18T14:08:41;3.50;99.90
21255;DHT22;10785;50.674;17.954;2023-11-18T14:11:10;3.40;99.90
21255;DHT22;10785;50.674;17.954;2023-11-18T14:13:44;3.40;99.90
21255;DHT22;10785;50.674;17.954;2023-11-18T14:16:15;3.30;99.90
21255;DHT22;10785;50.674;17.954;2023-11-18T14:18:48;3.20;99.90
21255;DHT22;10785;50.674;17.954;2023-11-18T14:21:18;3.20;99.90
21255;DHT22;10785;50.674;17.954;2023-11-18T14:23:50;3.10;99.90
21255;DHT22;10785;50.674;17.954;2023-11-18T14:26:20;3.10;99.90
21255;DHT22;10785;50.674;17.954;2023-11-18T14:28:49;3.10;99.90
21255;DHT22;10785;50.674;17.954;2023-11-18T14:31:20;3.10;99.90
21255;DHT22;10785;50.674;17.954;2023-11-18T14:33:51;3.00;99.90
21255;DHT22;10785;50.674;17.954;2023-11-18T14:36:22;3.00;99.90
21255;DHT22;10785;50.674;17.954;2023-11-18T14:38:53;3.00;99.90
21255;DHT22;10785;50.674;17.954;2023-11-18T14:41:29;3.00;99.90
21255;DHT22;10785;50.674;17.954;2023-11-18T14:44:06;3.00;99.90
21255;DHT22;10785;50.674;17.954;2023-11-18T14:46:40;3.00;99.90
21255;DHT22;10785;50.674;17.954;2023-11-18T14:49:21;3.00;99.90
21255;DHT22;10785;50.674;17.954;2023-11-18T14:52:02;3.00;99.90
21255;DHT22;10785;50.674;17.954;2023-11-18T14:54:36;3.00;99.90
21255;DHT22;10785;50.674;17.954;2023-11-18T14:57:10;3.00;99.90
21255;DHT22;10785;50.674;17.954;2023-11-18T14:59:45;2.90;99.90
21255;DHT22;10785;50.674;17.954;2023-11-18T15:02:17;2.90;99.90
21255;DHT22;10785;50.674;17.954;2023-11-18T15:04:50;2.80;99.90
21255;DHT22;10785;50.674;17.954;2023-11-18T15:07:29;2.80;99.90
21255;DHT22;10785;50.674;17.954;2023-11-18T15:10:07;2.70;99.90
21255;DHT22;10785;50.674;17.954;2023-11-18T15:12:46;2.60;99.90
21255;DHT22;10785;50.674;17.954;2023-11-18T15:15:17;2.60;99.90
21255;DHT22;10785;50.674;17.954;2023-11-18T15:18:00;2.60;99.90
21255;DHT22;10785;50.674;17.954;2023-11-18T15:20:38;2.60;99.90
21255;DHT22;10785;50.674;17.954;2023-11-18T15:23:23;2.60;99.90
21255;DHT22;10785;50.674;17.954;2023-11-18T15:26:07;2.50;99.90
21255;DHT22;10785;50.674;17.954;2023-11-18T15:29:06;2.60;99.90
21255;DHT22;10785;50.674;17.954;2023-11-18T15:31:48;2.50;99.90
21255;DHT22;10785;50.674;17.954;2023-11-18T15:34:22;2.60;99.90
21255;DHT22;10785;50.674;17.954;2023-11-18T15:37:11;2.60;99.90
21255;DHT22;10785;50.674;17.954;2023-11-18T15:39:51;2.70;99.90
21255;DHT22;10785;50.674;17.954;2023-11-18T15:42:38;2.70;99.90
21255;DHT22;10785;50.674;17.954;2023-11-18T15:45:30;2.70;99.90
21255;DHT22;10785;50.674;17.954;2023-11-18T15:48:16;2.70;99.90
21255;DHT22;10785;50.674;17.954;2023-11-18T15:50:50;2.70;99.90
21255;DHT22;10785;50.674;17.954;2023-11-18T15:53:19;2.70;99.90
21255;DHT22;10785;50.674;17.954;2023-11-18T15:55:50;2.70;99.90
21255;DHT22;10785;50.674;17.954;2023-11-18T15:58:24;2.70;99.90
21255;DHT22;10785;50.674;17.954;2023-11-18T16:01:02;2.70;99.90
21255;DHT22;10785;50.674;17.954;2023-11-18T16:03:39;2.70;99.90
21255;DHT22;10785;50.674;17.954;2023-11-18T16:06:29;2.70;99.90
21255;DHT22;10785;50.674;17.954;2023-11-18T16:09:00;2.70;99.90
21255;DHT22;10785;50.674;17.954;2023-11-18T16:11:42;2.70;99.90
21255;DHT22;10785;50.674;17.954;2023-11-18T16:14:42;2.60;99.90
21255;DHT22;10785;50.674;17.954;2023-11-18T16:17:29;2.60;99.90
21255;DHT22;10785;50.674;17.954;2023-11-18T16:20:13;2.70;99.90
21255;DHT22;10785;50.674;17.954;2023-11-18T16:23:03;2.70;99.90
21255;DHT22;10785;50.674;17.954;2023-11-18T16:28:46;2.70;99.90
21255;DHT22;10785;50.674;17.954;2023-11-18T16:31:39;2.70;99.90
21255;DHT22;10785;50.674;17.954;2023-11-18T16:34:24;2.80;99.90
21255;DHT22;10785;50.674;17.954;2023-11-18T16:37:04;2.70;99.90
21255;DHT22;10785;50.674;17.954;2023-11-18T16:39:41;2.70;99.90
21255;DHT22;10785;50.674;17.954;2023-11-18T16:42:15;2.70;99.90
21255;DHT22;10785;50.674;17.954;2023-11-18T16:44:49;2.70;99.90
21255;DHT22;10785;50.674;17.954;2023-11-18T16:47:23;2.80;99.90
21255;DHT22;10785;50.674;17.954;2023-11-18T16:49:56;2.70;99.90
21255;DHT22;10785;50.674;17.954;2023-11-18T16:52:31;2.70;99.90
21255;DHT22;10785;50.674;17.954;2023-11-18T16:55:03;2.70;99.90
21255;DHT22;10785;50.674;17.954;2023-11-18T16:57:33;2.70;99.90
21255;DHT22;10785;50.674;17.954;2023-11-18T17:00:11;2.70;99.90
21255;DHT22;10785;50.674;17.954;2023-11-18T17:02:56;2.80;99.90